KAFN/AFN METAR and TAF weather

Enter ICAO airport designator
Station Type Date Time Source
KAFN METAR 2018/12/13 15:52 UTC NOAA

KAFN 131552Z AUTO 00000KT 10SM SCT037 BKN110 M07/M12 A3046 RMK AO2 SLP340 T10671117


Station Type Date Time Source
KAFN Decoded METAR 2018/12/13 15:52 UTC NOAA

JAFFREY MUNI-SILVER RANCH, NH, United States (KAFN) 42-48N 72-00W 313M
Dec 13, 2018 - 10:52 AM EST / 2018.12.13 1552 UTC
Wind: Calm:0
Visibility: 10 mile(s):0
Sky conditions: mostly cloudy
Temperature: 19.9 F (-6.7 C)
Dew Point: 10.9 F (-11.7 C)
Relative Humidity: 67%
Pressure (altimeter): 30.46 in. Hg (1031 hPa)
ob: KAFN 131552Z AUTO 00000KT 10SM SCT037 BKN110 M07/M12 A3046 RMK AO2 SLP340 T10671117
cycle: 16

Station Type Date Time Source
KAFN TAF UTC NOAA

Error!


Example: see airport list